sensor_id;sensor_type;location;lat;lon;timestamp;P1;durP1;ratioP1;P2;durP2;ratioP2
21890;SDS011;11110;52.386;16.940;2022-09-01T00:00:52;5.53;;;2.60;;
21890;SDS011;11110;52.386;16.940;2022-09-01T00:03:22;4.30;;;2.38;;
21890;SDS011;11110;52.386;16.940;2022-09-01T00:05:52;4.47;;;2.35;;
21890;SDS011;11110;52.386;16.940;2022-09-01T00:08:22;4.70;;;2.10;;
21890;SDS011;11110;52.386;16.940;2022-09-01T00:10:51;3.50;;;1.77;;
21890;SDS011;11110;52.386;16.940;2022-09-01T00:13:19;3.78;;;2.10;;
21890;SDS011;11110;52.386;16.940;2022-09-01T00:15:49;6.47;;;2.50;;
21890;SDS011;11110;52.386;16.940;2022-09-01T00:18:17;2.35;;;1.77;;
21890;SDS011;11110;52.386;16.940;2022-09-01T00:20:46;5.18;;;2.20;;
21890;SDS011;11110;52.386;16.940;2022-09-01T00:23:14;6.05;;;2.33;;
21890;SDS011;11110;52.386;16.940;2022-09-01T00:25:43;5.30;;;2.13;;
21890;SDS011;11110;52.386;16.940;2022-09-01T00:28:11;5.97;;;2.17;;
21890;SDS011;11110;52.386;16.940;2022-09-01T00:30:39;5.05;;;1.80;;
21890;SDS011;11110;52.386;16.940;2022-09-01T00:33:09;4.18;;;2.03;;
21890;SDS011;11110;52.386;16.940;2022-09-01T00:35:40;5.88;;;2.22;;
21890;SDS011;11110;52.386;16.940;2022-09-01T00:38:08;4.43;;;1.77;;
21890;SDS011;11110;52.386;16.940;2022-09-01T00:40:37;3.72;;;2.00;;
21890;SDS011;11110;52.386;16.940;2022-09-01T00:43:10;4.70;;;2.03;;
21890;SDS011;11110;52.386;16.940;2022-09-01T00:45:40;5.05;;;1.95;;
21890;SDS011;11110;52.386;16.940;2022-09-01T00:48:10;5.47;;;2.47;;
21890;SDS011;11110;52.386;16.940;2022-09-01T00:50:40;2.78;;;1.85;;
21890;SDS011;11110;52.386;16.940;2022-09-01T00:53:15;2.60;;;1.70;;
21890;SDS011;11110;52.386;16.940;2022-09-01T00:55:43;7.13;;;2.72;;
21890;SDS011;11110;52.386;16.940;2022-09-01T00:58:11;5.38;;;2.38;;
21890;SDS011;11110;52.386;16.940;2022-09-01T01:00:45;5.13;;;2.20;;
21890;SDS011;11110;52.386;16.940;2022-09-01T01:03:17;5.43;;;2.50;;
21890;SDS011;11110;52.386;16.940;2022-09-01T01:05:46;7.50;;;2.83;;
21890;SDS011;11110;52.386;16.940;2022-09-01T01:08:20;5.57;;;2.85;;
21890;SDS011;11110;52.386;16.940;2022-09-01T01:10:56;5.80;;;2.58;;
21890;SDS011;11110;52.386;16.940;2022-09-01T01:13:24;5.63;;;2.45;;
21890;SDS011;11110;52.386;16.940;2022-09-01T01:15:54;6.28;;;2.75;;
21890;SDS011;11110;52.386;16.940;2022-09-01T01:18:25;3.63;;;2.22;;
21890;SDS011;11110;52.386;16.940;2022-09-01T01:20:56;10.10;;;2.92;;
21890;SDS011;11110;52.386;16.940;2022-09-01T01:23:47;3.45;;;2.42;;
21890;SDS011;11110;52.386;16.940;2022-09-01T01:26:23;3.65;;;1.88;;
21890;SDS011;11110;52.386;16.940;2022-09-01T01:28:53;4.13;;;2.28;;
21890;SDS011;11110;52.386;16.940;2022-09-01T01:31:21;5.78;;;3.22;;
21890;SDS011;11110;52.386;16.940;2022-09-01T01:33:52;7.20;;;2.72;;
21890;SDS011;11110;52.386;16.940;2022-09-01T01:36:23;5.63;;;2.63;;
21890;SDS011;11110;52.386;16.940;2022-09-01T01:39:00;8.18;;;3.15;;
21890;SDS011;11110;52.386;16.940;2022-09-01T01:41:34;7.20;;;2.67;;
21890;SDS011;11110;52.386;16.940;2022-09-01T01:44:07;8.07;;;2.67;;
21890;SDS011;11110;52.386;16.940;2022-09-01T01:46:39;6.25;;;2.75;;
21890;SDS011;11110;52.386;16.940;2022-09-01T01:49:09;4.97;;;2.50;;
21890;SDS011;11110;52.386;16.940;2022-09-01T01:51:41;7.22;;;3.15;;
21890;SDS011;11110;52.386;16.940;2022-09-01T01:54:11;5.97;;;3.08;;
21890;SDS011;11110;52.386;16.940;2022-09-01T01:56:41;6.35;;;2.90;;
21890;SDS011;11110;52.386;16.940;2022-09-01T01:59:09;7.25;;;3.03;;
21890;SDS011;11110;52.386;16.940;2022-09-01T02:01:42;5.88;;;2.70;;
21890;SDS011;11110;52.386;16.940;2022-09-01T02:04:17;5.43;;;2.75;;
21890;SDS011;11110;52.386;16.940;2022-09-01T02:06:46;6.18;;;2.45;;
21890;SDS011;11110;52.386;16.940;2022-09-01T02:09:17;6.63;;;2.80;;
21890;SDS011;11110;52.386;16.940;2022-09-01T02:11:50;6.70;;;2.75;;
21890;SDS011;11110;52.386;16.940;2022-09-01T02:14:23;9.35;;;2.80;;
21890;SDS011;11110;52.386;16.940;2022-09-01T02:16:51;4.57;;;2.17;;
21890;SDS011;11110;52.386;16.940;2022-09-01T02:19:21;4.15;;;2.20;;
21890;SDS011;11110;52.386;16.940;2022-09-01T02:21:50;5.05;;;2.70;;
21890;SDS011;11110;52.386;16.940;2022-09-01T02:24:22;6.65;;;2.20;;
21890;SDS011;11110;52.386;16.940;2022-09-01T02:26:53;4.72;;;2.58;;
21890;SDS011;11110;52.386;16.940;2022-09-01T02:29:23;8.02;;;2.63;;
21890;SDS011;11110;52.386;16.940;2022-09-01T02:31:55;2.60;;;1.58;;
21890;SDS011;11110;52.386;16.940;2022-09-01T02:34:24;7.43;;;2.35;;
21890;SDS011;11110;52.386;16.940;2022-09-01T02:36:54;7.25;;;2.92;;
21890;SDS011;11110;52.386;16.940;2022-09-01T02:39:25;3.80;;;2.42;;
21890;SDS011;11110;52.386;16.940;2022-09-01T02:41:57;2.50;;;2.00;;
21890;SDS011;11110;52.386;16.940;2022-09-01T02:44:27;6.28;;;2.83;;
21890;SDS011;11110;52.386;16.940;2022-09-01T02:46:58;4.28;;;2.33;;
21890;SDS011;11110;52.386;16.940;2022-09-01T02:49:27;3.95;;;2.15;;
21890;SDS011;11110;52.386;16.940;2022-09-01T02:51:58;7.68;;;2.75;;
21890;SDS011;11110;52.386;16.940;2022-09-01T02:54:29;4.95;;;1.88;;
21890;SDS011;11110;52.386;16.940;2022-09-01T02:57:00;6.43;;;2.30;;
21890;SDS011;11110;52.386;16.940;2022-09-01T02:59:30;4.20;;;2.35;;
21890;SDS011;11110;52.386;16.940;2022-09-01T03:02:00;6.70;;;2.97;;
21890;SDS011;11110;52.386;16.940;2022-09-01T03:04:28;4.75;;;2.75;;
21890;SDS011;11110;52.386;16.940;2022-09-01T03:07:01;8.27;;;2.70;;
21890;SDS011;11110;52.386;16.940;2022-09-01T03:09:29;4.85;;;3.20;;
21890;SDS011;11110;52.386;16.940;2022-09-01T03:12:02;5.85;;;2.88;;
21890;SDS011;11110;52.386;16.940;2022-09-01T03:14:33;4.72;;;2.65;;
21890;SDS011;11110;52.386;16.940;2022-09-01T03:17:01;6.55;;;3.10;;
21890;SDS011;11110;52.386;16.940;2022-09-01T03:19:30;10.48;;;3.75;;
21890;SDS011;11110;52.386;16.940;2022-09-01T03:22:05;4.45;;;2.50;;
21890;SDS011;11110;52.386;16.940;2022-09-01T03:24:35;5.93;;;2.95;;
21890;SDS011;11110;52.386;16.940;2022-09-01T03:27:05;8.07;;;3.72;;
21890;SDS011;11110;52.386;16.940;2022-09-01T03:29:37;6.20;;;2.70;;
21890;SDS011;11110;52.386;16.940;2022-09-01T03:32:06;4.95;;;2.38;;
21890;SDS011;11110;52.386;16.940;2022-09-01T03:34:35;6.10;;;2.67;;
21890;SDS011;11110;52.386;16.940;2022-09-01T03:37:04;3.17;;;2.40;;
21890;SDS011;11110;52.386;16.940;2022-09-01T03:39:33;5.38;;;2.13;;
21890;SDS011;11110;52.386;16.940;2022-09-01T03:42:02;8.32;;;3.35;;
21890;SDS011;11110;52.386;16.940;2022-09-01T03:44:32;3.35;;;2.17;;
21890;SDS011;11110;52.386;16.940;2022-09-01T03:47:01;3.33;;;1.92;;
21890;SDS011;11110;52.386;16.940;2022-09-01T03:49:30;5.65;;;2.80;;
21890;SDS011;11110;52.386;16.940;2022-09-01T03:51:58;8.25;;;3.00;;
21890;SDS011;11110;52.386;16.940;2022-09-01T03:54:27;7.90;;;2.97;;
21890;SDS011;11110;52.386;16.940;2022-09-01T03:56:56;4.65;;;2.47;;
21890;SDS011;11110;52.386;16.940;2022-09-01T03:59:25;6.30;;;3.13;;
21890;SDS011;11110;52.386;16.940;2022-09-01T04:01:57;6.25;;;2.92;;
21890;SDS011;11110;52.386;16.940;2022-09-01T04:04:28;10.13;;;3.50;;
21890;SDS011;11110;52.386;16.940;2022-09-01T04:06:58;10.13;;;3.33;;
21890;SDS011;11110;52.386;16.940;2022-09-01T04:09:28;8.52;;;3.90;;
21890;SDS011;11110;52.386;16.940;2022-09-01T04:11:59;8.98;;;4.20;;
21890;SDS011;11110;52.386;16.940;2022-09-01T04:14:29;6.93;;;3.08;;
21890;SDS011;11110;52.386;16.940;2022-09-01T04:16:59;8.23;;;3.20;;
21890;SDS011;11110;52.386;16.940;2022-09-01T04:19:45;7.85;;;3.22;;
21890;SDS011;11110;52.386;16.940;2022-09-01T04:22:14;7.22;;;3.28;;
21890;SDS011;11110;52.386;16.940;2022-09-01T04:24:43;8.25;;;3.50;;
21890;SDS011;11110;52.386;16.940;2022-09-01T04:27:13;4.57;;;2.85;;
21890;SDS011;11110;52.386;16.940;2022-09-01T04:29:43;6.55;;;2.92;;
21890;SDS011;11110;52.386;16.940;2022-09-01T04:32:14;6.72;;;3.25;;
21890;SDS011;11110;52.386;16.940;2022-09-01T04:34:51;6.00;;;2.60;;
21890;SDS011;11110;52.386;16.940;2022-09-01T04:37:19;6.10;;;3.13;;
21890;SDS011;11110;52.386;16.940;2022-09-01T04:39:53;13.23;;;3.80;;
21890;SDS011;11110;52.386;16.940;2022-09-01T04:42:24;5.85;;;3.22;;
21890;SDS011;11110;52.386;16.940;2022-09-01T04:44:56;4.43;;;2.90;;
21890;SDS011;11110;52.386;16.940;2022-09-01T04:47:30;5.80;;;2.97;;
21890;SDS011;11110;52.386;16.940;2022-09-01T04:50:05;6.05;;;2.50;;
21890;SDS011;11110;52.386;16.940;2022-09-01T04:52:43;3.05;;;2.38;;
21890;SDS011;11110;52.386;16.940;2022-09-01T04:55:24;3.08;;;2.60;;
21890;SDS011;11110;52.386;16.940;2022-09-01T04:57:55;4.75;;;2.95;;
21890;SDS011;11110;52.386;16.940;2022-09-01T05:00:25;5.53;;;3.28;;
21890;SDS011;11110;52.386;16.940;2022-09-01T05:02:59;6.47;;;2.90;;
21890;SDS011;11110;52.386;16.940;2022-09-01T05:05:53;4.20;;;2.65;;
21890;SDS011;11110;52.386;16.940;2022-09-01T05:08:23;7.35;;;2.63;;
21890;SDS011;11110;52.386;16.940;2022-09-01T05:10:54;4.47;;;2.55;;
21890;SDS011;11110;52.386;16.940;2022-09-01T05:13:43;8.35;;;2.63;;
21890;SDS011;11110;52.386;16.940;2022-09-01T05:16:14;3.97;;;2.70;;
21890;SDS011;11110;52.386;16.940;2022-09-01T05:18:55;4.63;;;2.72;;
21890;SDS011;11110;52.386;16.940;2022-09-01T05:21:29;4.97;;;3.05;;
21890;SDS011;11110;52.386;16.940;2022-09-01T05:23:58;5.50;;;4.18;;
21890;SDS011;11110;52.386;16.940;2022-09-01T05:26:30;6.88;;;3.72;;
21890;SDS011;11110;52.386;16.940;2022-09-01T05:29:01;8.35;;;4.65;;
21890;SDS011;11110;52.386;16.940;2022-09-01T05:31:36;5.55;;;3.50;;
21890;SDS011;11110;52.386;16.940;2022-09-01T05:34:06;10.15;;;5.20;;
21890;SDS011;11110;52.386;16.940;2022-09-01T05:36:42;6.57;;;3.45;;
21890;SDS011;11110;52.386;16.940;2022-09-01T05:39:16;7.68;;;3.90;;
21890;SDS011;11110;52.386;16.940;2022-09-01T05:41:45;6.65;;;3.53;;
21890;SDS011;11110;52.386;16.940;2022-09-01T05:44:16;7.18;;;3.40;;
21890;SDS011;11110;52.386;16.940;2022-09-01T05:46:49;4.15;;;2.60;;
21890;SDS011;11110;52.386;16.940;2022-09-01T05:49:21;11.65;;;5.43;;
21890;SDS011;11110;52.386;16.940;2022-09-01T05:51:52;13.40;;;8.25;;
21890;SDS011;11110;52.386;16.940;2022-09-01T05:54:26;10.10;;;4.68;;
21890;SDS011;11110;52.386;16.940;2022-09-01T05:56:55;8.60;;;6.10;;
21890;SDS011;11110;52.386;16.940;2022-09-01T05:59:45;8.73;;;5.28;;
21890;SDS011;11110;52.386;16.940;2022-09-01T06:02:22;10.77;;;4.35;;
21890;SDS011;11110;52.386;16.940;2022-09-01T06:04:53;8.23;;;4.47;;
21890;SDS011;11110;52.386;16.940;2022-09-01T06:07:28;12.25;;;4.15;;
21890;SDS011;11110;52.386;16.940;2022-09-01T06:09:59;8.70;;;3.42;;
21890;SDS011;11110;52.386;16.940;2022-09-01T06:12:28;7.38;;;3.50;;
21890;SDS011;11110;52.386;16.940;2022-09-01T06:14:56;8.25;;;3.55;;
21890;SDS011;11110;52.386;16.940;2022-09-01T06:17:26;7.55;;;2.92;;
21890;SDS011;11110;52.386;16.940;2022-09-01T06:20:02;7.28;;;3.60;;
21890;SDS011;11110;52.386;16.940;2022-09-01T06:22:38;7.07;;;3.22;;
21890;SDS011;11110;52.386;16.940;2022-09-01T06:25:08;8.43;;;3.65;;
21890;SDS011;11110;52.386;16.940;2022-09-01T06:27:41;8.05;;;3.50;;
21890;SDS011;11110;52.386;16.940;2022-09-01T06:30:11;8.93;;;3.30;;
21890;SDS011;11110;52.386;16.940;2022-09-01T06:32:52;6.40;;;3.15;;
21890;SDS011;11110;52.386;16.940;2022-09-01T06:35:23;5.30;;;2.15;;
21890;SDS011;11110;52.386;16.940;2022-09-01T06:37:55;6.07;;;1.90;;
21890;SDS011;11110;52.386;16.940;2022-09-01T06:40:39;4.32;;;2.10;;
21890;SDS011;11110;52.386;16.940;2022-09-01T06:43:10;5.10;;;1.90;;
21890;SDS011;11110;52.386;16.940;2022-09-01T06:45:44;5.13;;;2.42;;
21890;SDS011;11110;52.386;16.940;2022-09-01T06:48:16;1.00;;;0.98;;
21890;SDS011;11110;52.386;16.940;2022-09-01T06:50:47;2.03;;;1.00;;
21890;SDS011;11110;52.386;16.940;2022-09-01T06:53:35;1.33;;;0.90;;
21890;SDS011;11110;52.386;16.940;2022-09-01T06:56:15;3.65;;;1.50;;
21890;SDS011;11110;52.386;16.940;2022-09-01T06:58:45;4.93;;;1.58;;
21890;SDS011;11110;52.386;16.940;2022-09-01T07:01:14;2.10;;;1.27;;
21890;SDS011;11110;52.386;16.940;2022-09-01T07:03:47;8.50;;;2.92;;
21890;SDS011;11110;52.386;16.940;2022-09-01T07:06:32;1.88;;;0.93;;
21890;SDS011;11110;52.386;16.940;2022-09-01T07:09:50;3.05;;;1.23;;
21890;SDS011;11110;52.386;16.940;2022-09-01T07:12:44;4.78;;;1.70;;
21890;SDS011;11110;52.386;16.940;2022-09-01T07:15:36;5.72;;;1.90;;
21890;SDS011;11110;52.386;16.940;2022-09-01T07:18:27;3.42;;;1.63;;
21890;SDS011;11110;52.386;16.940;2022-09-01T07:20:58;3.47;;;1.70;;
21890;SDS011;11110;52.386;16.940;2022-09-01T07:23:50;5.18;;;2.10;;
21890;SDS011;11110;52.386;16.940;2022-09-01T07:26:51;4.63;;;1.33;;
21890;SDS011;11110;52.386;16.940;2022-09-01T07:29:21;3.17;;;1.30;;
21890;SDS011;11110;52.386;16.940;2022-09-01T07:31:52;1.38;;;0.98;;
21890;SDS011;11110;52.386;16.940;2022-09-01T07:34:43;2.45;;;0.75;;
21890;SDS011;11110;52.386;16.940;2022-09-01T07:37:16;3.35;;;1.60;;
21890;SDS011;11110;52.386;16.940;2022-09-01T07:40:11;3.72;;;1.30;;
21890;SDS011;11110;52.386;16.940;2022-09-01T07:43:04;3.08;;;1.35;;
21890;SDS011;11110;52.386;16.940;2022-09-01T07:45:54;3.30;;;0.90;;
21890;SDS011;11110;52.386;16.940;2022-09-01T07:48:27;5.00;;;1.08;;
21890;SDS011;11110;52.386;16.940;2022-09-01T07:51:17;4.07;;;1.38;;
21890;SDS011;11110;52.386;16.940;2022-09-01T07:54:05;2.28;;;1.40;;
21890;SDS011;11110;52.386;16.940;2022-09-01T07:56:35;4.97;;;1.55;;
21890;SDS011;11110;52.386;16.940;2022-09-01T07:59:08;6.70;;;1.60;;
21890;SDS011;11110;52.386;16.940;2022-09-01T08:02:01;4.32;;;1.52;;
21890;SDS011;11110;52.386;16.940;2022-09-01T08:04:31;1.50;;;1.02;;
21890;SDS011;11110;52.386;16.940;2022-09-01T08:07:01;4.63;;;1.73;;
21890;SDS011;11110;52.386;16.940;2022-09-01T08:09:31;3.95;;;1.30;;
21890;SDS011;11110;52.386;16.940;2022-09-01T08:12:11;3.10;;;1.65;;
21890;SDS011;11110;52.386;16.940;2022-09-01T08:14:45;5.00;;;2.45;;
21890;SDS011;11110;52.386;16.940;2022-09-01T08:17:39;4.10;;;1.65;;
21890;SDS011;11110;52.386;16.940;2022-09-01T08:20:25;2.17;;;1.27;;
21890;SDS011;11110;52.386;16.940;2022-09-01T08:22:58;5.50;;;1.27;;
21890;SDS011;11110;52.386;16.940;2022-09-01T08:25:32;3.55;;;1.42;;
21890;SDS011;11110;52.386;16.940;2022-09-01T08:28:05;3.40;;;1.15;;
21890;SDS011;11110;52.386;16.940;2022-09-01T08:30:33;5.00;;;1.77;;
21890;SDS011;11110;52.386;16.940;2022-09-01T08:33:03;2.83;;;1.13;;
21890;SDS011;11110;52.386;16.940;2022-09-01T08:35:43;3.13;;;1.42;;
21890;SDS011;11110;52.386;16.940;2022-09-01T08:38:17;2.38;;;1.20;;
21890;SDS011;11110;52.386;16.940;2022-09-01T08:40:49;3.55;;;1.27;;
21890;SDS011;11110;52.386;16.940;2022-09-01T08:43:29;4.25;;;1.25;;
21890;SDS011;11110;52.386;16.940;2022-09-01T08:46:11;1.75;;;0.85;;
21890;SDS011;11110;52.386;16.940;2022-09-01T08:48:45;4.47;;;1.15;;
21890;SDS011;11110;52.386;16.940;2022-09-01T08:51:57;4.15;;;1.75;;
21890;SDS011;11110;52.386;16.940;2022-09-01T08:54:31;2.42;;;1.27;;
21890;SDS011;11110;52.386;16.940;2022-09-01T08:57:06;3.38;;;1.65;;
21890;SDS011;11110;52.386;16.940;2022-09-01T08:59:57;2.30;;;1.08;;
21890;SDS011;11110;52.386;16.940;2022-09-01T09:08:28;2.08;;;1.05;;
21890;SDS011;11110;52.386;16.940;2022-09-01T09:11:08;3.17;;;1.15;;
21890;SDS011;11110;52.386;16.940;2022-09-01T09:13:53;3.13;;;1.23;;
21890;SDS011;11110;52.386;16.940;2022-09-01T09:16:29;2.45;;;1.05;;
21890;SDS011;11110;52.386;16.940;2022-09-01T09:19:02;2.80;;;1.20;;
21890;SDS011;11110;52.386;16.940;2022-09-01T09:21:36;2.35;;;1.23;;
21890;SDS011;11110;52.386;16.940;2022-09-01T09:24:08;1.00;;;0.70;;
21890;SDS011;11110;52.386;16.940;2022-09-01T09:26:49;4.00;;;1.17;;
21890;SDS011;11110;52.386;16.940;2022-09-01T09:29:18;5.30;;;1.92;;
21890;SDS011;11110;52.386;16.940;2022-09-01T09:31:50;3.42;;;1.35;;
21890;SDS011;11110;52.386;16.940;2022-09-01T09:34:31;3.92;;;1.63;;
21890;SDS011;11110;52.386;16.940;2022-09-01T09:37:21;3.30;;;2.25;;
21890;SDS011;11110;52.386;16.940;2022-09-01T09:40:00;5.65;;;2.28;;
21890;SDS011;11110;52.386;16.940;2022-09-01T09:42:31;2.92;;;1.40;;
21890;SDS011;11110;52.386;16.940;2022-09-01T09:45:02;2.78;;;1.23;;
21890;SDS011;11110;52.386;16.940;2022-09-01T09:47:37;3.65;;;1.45;;
21890;SDS011;11110;52.386;16.940;2022-09-01T09:50:12;2.40;;;1.08;;
21890;SDS011;11110;52.386;16.940;2022-09-01T09:52:46;1.88;;;1.00;;
21890;SDS011;11110;52.386;16.940;2022-09-01T09:55:18;1.77;;;0.77;;
21890;SDS011;11110;52.386;16.940;2022-09-01T09:57:50;1.80;;;0.82;;
21890;SDS011;11110;52.386;16.940;2022-09-01T10:00:22;3.65;;;1.48;;
21890;SDS011;11110;52.386;16.940;2022-09-01T10:02:55;6.03;;;1.10;;
21890;SDS011;11110;52.386;16.940;2022-09-01T10:05:35;6.95;;;1.85;;
21890;SDS011;11110;52.386;16.940;2022-09-01T10:08:07;1.88;;;0.80;;
21890;SDS011;11110;52.386;16.940;2022-09-01T10:10:38;0.73;;;0.50;;
21890;SDS011;11110;52.386;16.940;2022-09-01T10:13:10;4.25;;;1.63;;
21890;SDS011;11110;52.386;16.940;2022-09-01T10:15:42;3.22;;;1.23;;
21890;SDS011;11110;52.386;16.940;2022-09-01T10:18:20;2.58;;;1.08;;
21890;SDS011;11110;52.386;16.940;2022-09-01T10:20:57;2.55;;;0.93;;
21890;SDS011;11110;52.386;16.940;2022-09-01T10:23:30;3.08;;;1.27;;
21890;SDS011;11110;52.386;16.940;2022-09-01T10:26:04;2.22;;;1.00;;
21890;SDS011;11110;52.386;16.940;2022-09-01T10:28:40;1.48;;;0.77;;
21890;SDS011;11110;52.386;16.940;2022-09-01T10:31:17;2.47;;;1.20;;
21890;SDS011;11110;52.386;16.940;2022-09-01T10:33:48;0.85;;;0.60;;
21890;SDS011;11110;52.386;16.940;2022-09-01T10:36:17;2.20;;;1.00;;
21890;SDS011;11110;52.386;16.940;2022-09-01T10:38:50;2.45;;;1.08;;
21890;SDS011;11110;52.386;16.940;2022-09-01T10:41:42;1.25;;;0.70;;
21890;SDS011;11110;52.386;16.940;2022-09-01T10:44:26;3.28;;;1.17;;
21890;SDS011;11110;52.386;16.940;2022-09-01T10:47:00;2.65;;;1.33;;
21890;SDS011;11110;52.386;16.940;2022-09-01T10:52:54;4.80;;;1.95;;
21890;SDS011;11110;52.386;16.940;2022-09-01T10:55:25;2.00;;;0.90;;
21890;SDS011;11110;52.386;16.940;2022-09-01T10:58:01;2.40;;;1.13;;
21890;SDS011;11110;52.386;16.940;2022-09-01T11:01:02;5.00;;;2.70;;
21890;SDS011;11110;52.386;16.940;2022-09-01T11:03:48;3.80;;;1.70;;
21890;SDS011;11110;52.386;16.940;2022-09-01T11:06:44;4.18;;;1.83;;
21890;SDS011;11110;52.386;16.940;2022-09-01T11:10:05;2.83;;;1.23;;
21890;SDS011;11110;52.386;16.940;2022-09-01T11:22:24;3.83;;;1.40;;
21890;SDS011;11110;52.386;16.940;2022-09-01T11:25:07;3.05;;;1.13;;
21890;SDS011;11110;52.386;16.940;2022-09-01T11:28:07;2.42;;;1.00;;
21890;SDS011;11110;52.386;16.940;2022-09-01T11:31:01;3.28;;;1.02;;
21890;SDS011;11110;52.386;16.940;2022-09-01T11:33:45;3.80;;;1.70;;
21890;SDS011;11110;52.386;16.940;2022-09-01T11:36:25;3.28;;;1.52;;
21890;SDS011;11110;52.386;16.940;2022-09-01T11:38:58;2.00;;;1.00;;
21890;SDS011;11110;52.386;16.940;2022-09-01T11:41:34;4.95;;;2.25;;
21890;SDS011;11110;52.386;16.940;2022-09-01T11:44:23;2.38;;;1.23;;
21890;SDS011;11110;52.386;16.940;2022-09-01T11:46:58;4.28;;;1.67;;
21890;SDS011;11110;52.386;16.940;2022-09-01T11:49:32;3.13;;;1.40;;
21890;SDS011;11110;52.386;16.940;2022-09-01T11:52:02;3.08;;;1.13;;
21890;SDS011;11110;52.386;16.940;2022-09-01T11:54:37;6.53;;;2.13;;
21890;SDS011;11110;52.386;16.940;2022-09-01T11:57:18;3.15;;;1.05;;
21890;SDS011;11110;52.386;16.940;2022-09-01T11:59:50;3.45;;;1.33;;
21890;SDS011;11110;52.386;16.940;2022-09-01T12:02:20;3.00;;;1.45;;
21890;SDS011;11110;52.386;16.940;2022-09-01T12:04:51;3.67;;;1.92;;
21890;SDS011;11110;52.386;16.940;2022-09-01T12:07:24;4.40;;;1.80;;
21890;SDS011;11110;52.386;16.940;2022-09-01T12:10:14;4.05;;;1.90;;
21890;SDS011;11110;52.386;16.940;2022-09-01T12:12:47;4.65;;;1.98;;
21890;SDS011;11110;52.386;16.940;2022-09-01T12:15:17;2.78;;;1.20;;
21890;SDS011;11110;52.386;16.940;2022-09-01T12:17:48;2.58;;;1.27;;
21890;SDS011;11110;52.386;16.940;2022-09-01T12:20:21;4.00;;;1.13;;
21890;SDS011;11110;52.386;16.940;2022-09-01T12:22:56;4.07;;;1.60;;
21890;SDS011;11110;52.386;16.940;2022-09-01T12:25:28;3.55;;;1.30;;
21890;SDS011;11110;52.386;16.940;2022-09-01T12:28:00;2.95;;;1.58;;
21890;SDS011;11110;52.386;16.940;2022-09-01T12:30:29;6.07;;;2.78;;
21890;SDS011;11110;52.386;16.940;2022-09-01T12:33:01;4.13;;;2.00;;
21890;SDS011;11110;52.386;16.940;2022-09-01T12:35:49;7.30;;;3.20;;
21890;SDS011;11110;52.386;16.940;2022-09-01T12:38:27;4.22;;;1.48;;
21890;SDS011;11110;52.386;16.940;2022-09-01T12:40:57;3.22;;;1.48;;
21890;SDS011;11110;52.386;16.940;2022-09-01T12:43:31;2.60;;;0.77;;
21890;SDS011;11110;52.386;16.940;2022-09-01T12:46:02;1.95;;;1.10;;
21890;SDS011;11110;52.386;16.940;2022-09-01T12:48:33;1.58;;;0.98;;
21890;SDS011;11110;52.386;16.940;2022-09-01T12:51:17;6.38;;;1.23;;
21890;SDS011;11110;52.386;16.940;2022-09-01T12:53:54;2.70;;;0.82;;
21890;SDS011;11110;52.386;16.940;2022-09-01T12:56:26;2.72;;;1.17;;
21890;SDS011;11110;52.386;16.940;2022-09-01T12:59:07;2.22;;;0.65;;
21890;SDS011;11110;52.386;16.940;2022-09-01T13:01:43;1.90;;;0.73;;
21890;SDS011;11110;52.386;16.940;2022-09-01T13:04:14;3.13;;;1.27;;
21890;SDS011;11110;52.386;16.940;2022-09-01T13:06:51;2.28;;;1.08;;
21890;SDS011;11110;52.386;16.940;2022-09-01T13:09:21;1.95;;;1.00;;
21890;SDS011;11110;52.386;16.940;2022-09-01T13:11:49;3.03;;;0.95;;
21890;SDS011;11110;52.386;16.940;2022-09-01T13:14:35;3.42;;;1.48;;
21890;SDS011;11110;52.386;16.940;2022-09-01T13:17:04;2.33;;;1.05;;
21890;SDS011;11110;52.386;16.940;2022-09-01T13:19:40;3.17;;;1.23;;
21890;SDS011;11110;52.386;16.940;2022-09-01T13:22:09;2.95;;;1.33;;
21890;SDS011;11110;52.386;16.940;2022-09-01T13:24:37;3.28;;;1.38;;
21890;SDS011;11110;52.386;16.940;2022-09-01T13:27:06;1.77;;;0.82;;
21890;SDS011;11110;52.386;16.940;2022-09-01T13:29:51;3.25;;;1.73;;
21890;SDS011;11110;52.386;16.940;2022-09-01T13:32:20;5.63;;;1.90;;
21890;SDS011;11110;52.386;16.940;2022-09-01T13:34:50;2.70;;;0.98;;
21890;SDS011;11110;52.386;16.940;2022-09-01T13:37:20;1.75;;;0.88;;
21890;SDS011;11110;52.386;16.940;2022-09-01T13:39:49;2.78;;;1.10;;
21890;SDS011;11110;52.386;16.940;2022-09-01T13:42:18;3.28;;;1.42;;
21890;SDS011;11110;52.386;16.940;2022-09-01T13:44:46;1.25;;;0.73;;
21890;SDS011;11110;52.386;16.940;2022-09-01T13:47:22;2.63;;;1.00;;
21890;SDS011;11110;52.386;16.940;2022-09-01T13:49:55;2.08;;;1.20;;
21890;SDS011;11110;52.386;16.940;2022-09-01T13:52:35;1.90;;;0.73;;
21890;SDS011;11110;52.386;16.940;2022-09-01T13:55:04;6.25;;;1.00;;
21890;SDS011;11110;52.386;16.940;2022-09-01T13:57:34;4.18;;;1.55;;
21890;SDS011;11110;52.386;16.940;2022-09-01T14:00:03;5.53;;;1.17;;
21890;SDS011;11110;52.386;16.940;2022-09-01T14:02:37;2.30;;;1.17;;
21890;SDS011;11110;52.386;16.940;2022-09-01T14:05:06;1.13;;;0.80;;
21890;SDS011;11110;52.386;16.940;2022-09-01T14:07:36;4.88;;;1.38;;
21890;SDS011;11110;52.386;16.940;2022-09-01T14:10:05;2.00;;;0.80;;
21890;SDS011;11110;52.386;16.940;2022-09-01T14:12:34;1.20;;;0.50;;
21890;SDS011;11110;52.386;16.940;2022-09-01T14:15:03;3.35;;;1.13;;
21890;SDS011;11110;52.386;16.940;2022-09-01T14:17:41;3.10;;;1.05;;
21890;SDS011;11110;52.386;16.940;2022-09-01T14:20:12;1.83;;;1.10;;
21890;SDS011;11110;52.386;16.940;2022-09-01T14:22:41;1.98;;;0.73;;
21890;SDS011;11110;52.386;16.940;2022-09-01T14:25:10;2.80;;;1.27;;
21890;SDS011;11110;52.386;16.940;2022-09-01T14:27:40;3.80;;;1.45;;
21890;SDS011;11110;52.386;16.940;2022-09-01T14:30:11;0.65;;;0.50;;
21890;SDS011;11110;52.386;16.940;2022-09-01T14:32:47;1.77;;;0.73;;
21890;SDS011;11110;52.386;16.940;2022-09-01T14:35:17;1.92;;;1.08;;
21890;SDS011;11110;52.386;16.940;2022-09-01T14:37:46;2.05;;;0.95;;
21890;SDS011;11110;52.386;16.940;2022-09-01T14:40:15;3.72;;;2.53;;
21890;SDS011;11110;52.386;16.940;2022-09-01T14:42:46;3.40;;;1.10;;
21890;SDS011;11110;52.386;16.940;2022-09-01T14:45:18;2.63;;;1.35;;
21890;SDS011;11110;52.386;16.940;2022-09-01T14:47:50;3.63;;;1.70;;
21890;SDS011;11110;52.386;16.940;2022-09-01T14:50:20;3.83;;;1.45;;
21890;SDS011;11110;52.386;16.940;2022-09-01T14:52:51;3.38;;;1.20;;
21890;SDS011;11110;52.386;16.940;2022-09-01T14:55:21;3.28;;;1.40;;
21890;SDS011;11110;52.386;16.940;2022-09-01T14:57:51;3.20;;;1.35;;
21890;SDS011;11110;52.386;16.940;2022-09-01T15:00:21;4.28;;;1.52;;
21890;SDS011;11110;52.386;16.940;2022-09-01T15:02:53;2.03;;;1.10;;
21890;SDS011;11110;52.386;16.940;2022-09-01T15:05:22;2.65;;;1.77;;
21890;SDS011;11110;52.386;16.940;2022-09-01T15:07:51;2.90;;;1.45;;
21890;SDS011;11110;52.386;16.940;2022-09-01T15:10:21;2.83;;;1.58;;
21890;SDS011;11110;52.386;16.940;2022-09-01T15:12:52;3.85;;;1.45;;
21890;SDS011;11110;52.386;16.940;2022-09-01T15:15:22;2.78;;;1.50;;
21890;SDS011;11110;52.386;16.940;2022-09-01T15:17:52;1.23;;;0.80;;
21890;SDS011;11110;52.386;16.940;2022-09-01T15:20:21;8.00;;;4.18;;
21890;SDS011;11110;52.386;16.940;2022-09-01T15:23:08;5.72;;;1.73;;
21890;SDS011;11110;52.386;16.940;2022-09-01T15:25:37;3.25;;;1.50;;
21890;SDS011;11110;52.386;16.940;2022-09-01T15:28:05;2.50;;;1.42;;
21890;SDS011;11110;52.386;16.940;2022-09-01T15:30:34;2.03;;;1.30;;
21890;SDS011;11110;52.386;16.940;2022-09-01T15:33:04;1.73;;;1.30;;